sensor_id;sensor_type;location;lat;lon;timestamp;P1;durP1;ratioP1;P2;durP2;ratioP2
39924;SDS011;25592;49.986;11.618;2022-11-20T00:01:41;24.15;;;9.25;;
39924;SDS011;25592;49.986;11.618;2022-11-20T00:04:26;16.80;;;8.07;;
39924;SDS011;25592;49.986;11.618;2022-11-20T00:07:11;17.10;;;8.68;;
39924;SDS011;25592;49.986;11.618;2022-11-20T00:09:57;20.90;;;8.75;;
39924;SDS011;25592;49.986;11.618;2022-11-20T00:12:42;19.65;;;8.43;;
39924;SDS011;25592;49.986;11.618;2022-11-20T00:15:27;20.30;;;9.02;;
39924;SDS011;25592;49.986;11.618;2022-11-20T00:18:13;19.15;;;8.35;;
39924;SDS011;25592;49.986;11.618;2022-11-20T00:21:10;15.10;;;8.38;;
39924;SDS011;25592;49.986;11.618;2022-11-20T00:24:00;19.55;;;9.18;;
39924;SDS011;25592;49.986;11.618;2022-11-20T00:26:45;16.00;;;7.78;;
39924;SDS011;25592;49.986;11.618;2022-11-20T00:29:31;20.63;;;9.05;;
39924;SDS011;25592;49.986;11.618;2022-11-20T00:32:16;21.63;;;9.65;;
39924;SDS011;25592;49.986;11.618;2022-11-20T00:35:02;19.35;;;9.57;;
39924;SDS011;25592;49.986;11.618;2022-11-20T00:37:47;20.15;;;10.38;;
39924;SDS011;25592;49.986;11.618;2022-11-20T00:40:32;22.70;;;9.35;;
39924;SDS011;25592;49.986;11.618;2022-11-20T00:43:18;20.15;;;9.32;;
39924;SDS011;25592;49.986;11.618;2022-11-20T00:46:08;23.35;;;9.85;;
39924;SDS011;25592;49.986;11.618;2022-11-20T00:48:57;20.15;;;9.07;;
39924;SDS011;25592;49.986;11.618;2022-11-20T00:51:42;19.55;;;8.93;;
39924;SDS011;25592;49.986;11.618;2022-11-20T00:54:27;15.95;;;7.90;;
39924;SDS011;25592;49.986;11.618;2022-11-20T00:57:13;19.13;;;9.20;;
39924;SDS011;25592;49.986;11.618;2022-11-20T00:59:58;16.50;;;8.02;;
39924;SDS011;25592;49.986;11.618;2022-11-20T01:02:44;19.75;;;9.07;;
39924;SDS011;25592;49.986;11.618;2022-11-20T01:05:33;22.40;;;9.60;;
39924;SDS011;25592;49.986;11.618;2022-11-20T01:08:19;28.42;;;11.82;;
39924;SDS011;25592;49.986;11.618;2022-11-20T01:11:05;16.92;;;8.38;;
39924;SDS011;25592;49.986;11.618;2022-11-20T01:13:53;19.75;;;9.82;;
39924;SDS011;25592;49.986;11.618;2022-11-20T01:16:41;20.05;;;9.35;;
39924;SDS011;25592;49.986;11.618;2022-11-20T01:19:28;23.27;;;10.27;;
39924;SDS011;25592;49.986;11.618;2022-11-20T01:22:13;18.63;;;8.90;;
39924;SDS011;25592;49.986;11.618;2022-11-20T01:24:59;19.58;;;8.43;;
39924;SDS011;25592;49.986;11.618;2022-11-20T01:27:44;19.60;;;8.60;;
39924;SDS011;25592;49.986;11.618;2022-11-20T01:30:30;18.10;;;8.43;;
39924;SDS011;25592;49.986;11.618;2022-11-20T01:33:15;17.02;;;8.25;;
39924;SDS011;25592;49.986;11.618;2022-11-20T01:36:04;21.95;;;8.65;;
39924;SDS011;25592;49.986;11.618;2022-11-20T01:38:51;17.83;;;8.65;;
39924;SDS011;25592;49.986;11.618;2022-11-20T01:41:38;16.38;;;8.25;;
39924;SDS011;25592;49.986;11.618;2022-11-20T01:47:43;18.13;;;8.52;;
39924;SDS011;25592;49.986;11.618;2022-11-20T01:50:30;19.77;;;8.80;;
39924;SDS011;25592;49.986;11.618;2022-11-20T01:53:18;20.42;;;8.82;;
39924;SDS011;25592;49.986;11.618;2022-11-20T01:56:08;21.17;;;10.45;;
39924;SDS011;25592;49.986;11.618;2022-11-20T01:58:56;25.17;;;10.05;;
39924;SDS011;25592;49.986;11.618;2022-11-20T02:01:45;20.92;;;9.85;;
39924;SDS011;25592;49.986;11.618;2022-11-20T02:04:31;21.85;;;9.43;;
39924;SDS011;25592;49.986;11.618;2022-11-20T02:07:16;23.10;;;10.60;;
39924;SDS011;25592;49.986;11.618;2022-11-20T02:10:03;20.65;;;10.23;;
39924;SDS011;25592;49.986;11.618;2022-11-20T02:12:48;23.33;;;9.73;;
39924;SDS011;25592;49.986;11.618;2022-11-20T02:15:52;24.33;;;9.02;;
39924;SDS011;25592;49.986;11.618;2022-11-20T02:18:38;18.67;;;8.98;;
39924;SDS011;25592;49.986;11.618;2022-11-20T02:21:25;20.33;;;9.15;;
39924;SDS011;25592;49.986;11.618;2022-11-20T02:24:18;19.23;;;8.55;;
39924;SDS011;25592;49.986;11.618;2022-11-20T02:27:06;17.15;;;8.73;;
39924;SDS011;25592;49.986;11.618;2022-11-20T02:29:58;18.73;;;9.15;;
39924;SDS011;25592;49.986;11.618;2022-11-20T02:32:45;23.50;;;10.05;;
39924;SDS011;25592;49.986;11.618;2022-11-20T02:38:16;21.15;;;9.27;;
39924;SDS011;25592;49.986;11.618;2022-11-20T02:41:02;18.67;;;9.10;;
39924;SDS011;25592;49.986;11.618;2022-11-20T02:43:48;21.48;;;9.32;;
39924;SDS011;25592;49.986;11.618;2022-11-20T02:46:33;19.02;;;8.98;;
39924;SDS011;25592;49.986;11.618;2022-11-20T02:49:19;20.95;;;9.05;;
39924;SDS011;25592;49.986;11.618;2022-11-20T02:52:05;18.73;;;9.60;;
39924;SDS011;25592;49.986;11.618;2022-11-20T02:54:51;18.83;;;8.52;;
39924;SDS011;25592;49.986;11.618;2022-11-20T02:57:36;18.88;;;8.85;;
39924;SDS011;25592;49.986;11.618;2022-11-20T03:00:21;21.63;;;10.07;;
39924;SDS011;25592;49.986;11.618;2022-11-20T03:03:07;21.00;;;9.80;;
39924;SDS011;25592;49.986;11.618;2022-11-20T03:05:52;19.42;;;9.05;;
39924;SDS011;25592;49.986;11.618;2022-11-20T03:08:38;21.50;;;9.90;;
39924;SDS011;25592;49.986;11.618;2022-11-20T03:11:23;20.02;;;10.52;;
39924;SDS011;25592;49.986;11.618;2022-11-20T03:14:08;22.83;;;10.27;;
39924;SDS011;25592;49.986;11.618;2022-11-20T03:16:54;22.23;;;9.90;;
39924;SDS011;25592;49.986;11.618;2022-11-20T03:19:40;24.63;;;9.90;;
39924;SDS011;25592;49.986;11.618;2022-11-20T03:22:25;25.88;;;11.32;;
39924;SDS011;25592;49.986;11.618;2022-11-20T03:25:13;23.10;;;10.30;;
39924;SDS011;25592;49.986;11.618;2022-11-20T03:27:59;21.33;;;9.60;;
39924;SDS011;25592;49.986;11.618;2022-11-20T03:30:44;25.08;;;9.77;;
39924;SDS011;25592;49.986;11.618;2022-11-20T03:33:30;20.85;;;10.10;;
39924;SDS011;25592;49.986;11.618;2022-11-20T03:36:16;22.70;;;10.55;;
39924;SDS011;25592;49.986;11.618;2022-11-20T03:39:03;23.45;;;10.18;;
39924;SDS011;25592;49.986;11.618;2022-11-20T03:41:48;21.83;;;9.98;;
39924;SDS011;25592;49.986;11.618;2022-11-20T03:44:33;20.05;;;9.98;;
39924;SDS011;25592;49.986;11.618;2022-11-20T03:47:19;21.20;;;10.00;;
39924;SDS011;25592;49.986;11.618;2022-11-20T03:50:04;22.65;;;10.40;;
39924;SDS011;25592;49.986;11.618;2022-11-20T03:52:49;20.95;;;9.68;;
39924;SDS011;25592;49.986;11.618;2022-11-20T03:55:35;21.95;;;10.15;;
39924;SDS011;25592;49.986;11.618;2022-11-20T03:58:20;20.33;;;9.07;;
39924;SDS011;25592;49.986;11.618;2022-11-20T04:01:08;22.40;;;9.45;;
39924;SDS011;25592;49.986;11.618;2022-11-20T04:03:55;24.13;;;10.23;;
39924;SDS011;25592;49.986;11.618;2022-11-20T04:06:41;21.15;;;10.30;;
39924;SDS011;25592;49.986;11.618;2022-11-20T04:09:26;22.98;;;10.73;;
39924;SDS011;25592;49.986;11.618;2022-11-20T04:12:12;20.70;;;9.57;;
39924;SDS011;25592;49.986;11.618;2022-11-20T04:14:57;18.52;;;9.32;;
39924;SDS011;25592;49.986;11.618;2022-11-20T04:17:42;19.75;;;9.52;;
39924;SDS011;25592;49.986;11.618;2022-11-20T04:20:28;22.58;;;10.40;;
39924;SDS011;25592;49.986;11.618;2022-11-20T04:23:13;23.90;;;9.95;;
39924;SDS011;25592;49.986;11.618;2022-11-20T04:26:06;21.38;;;10.18;;
39924;SDS011;25592;49.986;11.618;2022-11-20T04:28:53;24.08;;;10.75;;
39924;SDS011;25592;49.986;11.618;2022-11-20T04:31:39;21.10;;;10.98;;
39924;SDS011;25592;49.986;11.618;2022-11-20T04:34:24;22.38;;;10.80;;
39924;SDS011;25592;49.986;11.618;2022-11-20T04:37:10;22.00;;;9.98;;
39924;SDS011;25592;49.986;11.618;2022-11-20T04:39:55;21.88;;;9.52;;
39924;SDS011;25592;49.986;11.618;2022-11-20T04:42:41;22.95;;;10.00;;
39924;SDS011;25592;49.986;11.618;2022-11-20T04:45:26;21.30;;;9.63;;
39924;SDS011;25592;49.986;11.618;2022-11-20T04:48:11;20.10;;;9.95;;
39924;SDS011;25592;49.986;11.618;2022-11-20T04:50:57;23.95;;;10.05;;
39924;SDS011;25592;49.986;11.618;2022-11-20T04:53:42;19.98;;;9.60;;
39924;SDS011;25592;49.986;11.618;2022-11-20T04:56:28;23.85;;;10.48;;
39924;SDS011;25592;49.986;11.618;2022-11-20T04:59:13;21.92;;;9.48;;
39924;SDS011;25592;49.986;11.618;2022-11-20T05:01:59;21.17;;;9.95;;
39924;SDS011;25592;49.986;11.618;2022-11-20T05:04:44;23.67;;;11.05;;
39924;SDS011;25592;49.986;11.618;2022-11-20T05:07:29;19.98;;;9.32;;
39924;SDS011;25592;49.986;11.618;2022-11-20T05:10:15;22.40;;;9.77;;
39924;SDS011;25592;49.986;11.618;2022-11-20T05:13:00;25.05;;;9.90;;
39924;SDS011;25592;49.986;11.618;2022-11-20T05:15:46;21.00;;;9.93;;
39924;SDS011;25592;49.986;11.618;2022-11-20T05:18:31;21.48;;;10.23;;
39924;SDS011;25592;49.986;11.618;2022-11-20T05:21:17;22.73;;;10.30;;
39924;SDS011;25592;49.986;11.618;2022-11-20T05:24:03;22.73;;;9.88;;
39924;SDS011;25592;49.986;11.618;2022-11-20T05:26:49;20.52;;;10.05;;
39924;SDS011;25592;49.986;11.618;2022-11-20T05:29:34;23.40;;;10.20;;
39924;SDS011;25592;49.986;11.618;2022-11-20T05:32:20;22.25;;;10.27;;
39924;SDS011;25592;49.986;11.618;2022-11-20T05:35:05;21.42;;;10.82;;
39924;SDS011;25592;49.986;11.618;2022-11-20T05:37:51;26.58;;;10.25;;
39924;SDS011;25592;49.986;11.618;2022-11-20T05:40:36;21.73;;;10.05;;
39924;SDS011;25592;49.986;11.618;2022-11-20T05:43:22;24.27;;;10.23;;
39924;SDS011;25592;49.986;11.618;2022-11-20T05:46:07;22.88;;;11.43;;
39924;SDS011;25592;49.986;11.618;2022-11-20T05:48:54;23.55;;;10.27;;
39924;SDS011;25592;49.986;11.618;2022-11-20T05:51:40;23.20;;;11.88;;
39924;SDS011;25592;49.986;11.618;2022-11-20T05:54:26;21.90;;;9.80;;
39924;SDS011;25592;49.986;11.618;2022-11-20T05:57:11;23.50;;;10.20;;
39924;SDS011;25592;49.986;11.618;2022-11-20T05:59:57;22.55;;;10.95;;
39924;SDS011;25592;49.986;11.618;2022-11-20T06:02:42;21.67;;;10.90;;
39924;SDS011;25592;49.986;11.618;2022-11-20T06:05:28;26.35;;;11.02;;
39924;SDS011;25592;49.986;11.618;2022-11-20T06:08:13;24.63;;;10.77;;
39924;SDS011;25592;49.986;11.618;2022-11-20T06:10:58;26.70;;;11.82;;
39924;SDS011;25592;49.986;11.618;2022-11-20T06:13:49;28.55;;;12.20;;
39924;SDS011;25592;49.986;11.618;2022-11-20T06:16:34;26.77;;;11.57;;
39924;SDS011;25592;49.986;11.618;2022-11-20T06:19:20;24.08;;;11.60;;
39924;SDS011;25592;49.986;11.618;2022-11-20T06:22:06;23.08;;;10.18;;
39924;SDS011;25592;49.986;11.618;2022-11-20T06:24:51;25.95;;;10.55;;
39924;SDS011;25592;49.986;11.618;2022-11-20T06:27:37;24.38;;;12.23;;
39924;SDS011;25592;49.986;11.618;2022-11-20T06:30:22;25.40;;;11.32;;
39924;SDS011;25592;49.986;11.618;2022-11-20T06:33:07;26.73;;;11.68;;
39924;SDS011;25592;49.986;11.618;2022-11-20T06:35:55;27.50;;;12.50;;
39924;SDS011;25592;49.986;11.618;2022-11-20T06:38:46;28.60;;;13.15;;
39924;SDS011;25592;49.986;11.618;2022-11-20T06:41:32;30.13;;;12.02;;
39924;SDS011;25592;49.986;11.618;2022-11-20T06:44:17;29.77;;;12.77;;
39924;SDS011;25592;49.986;11.618;2022-11-20T06:47:02;23.58;;;11.70;;
39924;SDS011;25592;49.986;11.618;2022-11-20T06:49:48;27.20;;;12.32;;
39924;SDS011;25592;49.986;11.618;2022-11-20T06:52:33;32.17;;;13.32;;
39924;SDS011;25592;49.986;11.618;2022-11-20T06:55:26;32.63;;;13.68;;
39924;SDS011;25592;49.986;11.618;2022-11-20T06:58:12;29.60;;;13.75;;
39924;SDS011;25592;49.986;11.618;2022-11-20T07:01:04;27.55;;;13.10;;
39924;SDS011;25592;49.986;11.618;2022-11-20T07:03:52;24.45;;;11.00;;
39924;SDS011;25592;49.986;11.618;2022-11-20T07:06:38;21.15;;;10.13;;
39924;SDS011;25592;49.986;11.618;2022-11-20T07:09:24;25.90;;;11.73;;
39924;SDS011;25592;49.986;11.618;2022-11-20T07:12:09;28.65;;;12.52;;
39924;SDS011;25592;49.986;11.618;2022-11-20T07:14:54;28.27;;;12.73;;
39924;SDS011;25592;49.986;11.618;2022-11-20T07:17:40;24.13;;;12.52;;
39924;SDS011;25592;49.986;11.618;2022-11-20T07:20:25;30.42;;;13.68;;
39924;SDS011;25592;49.986;11.618;2022-11-20T07:23:10;29.98;;;13.07;;
39924;SDS011;25592;49.986;11.618;2022-11-20T07:25:56;32.53;;;14.38;;
39924;SDS011;25592;49.986;11.618;2022-11-20T07:28:43;30.35;;;15.05;;
39924;SDS011;25592;49.986;11.618;2022-11-20T07:31:29;34.42;;;15.98;;
39924;SDS011;25592;49.986;11.618;2022-11-20T07:34:15;36.30;;;16.60;;
39924;SDS011;25592;49.986;11.618;2022-11-20T07:37:00;35.10;;;16.08;;
39924;SDS011;25592;49.986;11.618;2022-11-20T07:39:52;34.00;;;14.73;;
39924;SDS011;25592;49.986;11.618;2022-11-20T07:42:38;33.67;;;14.50;;
39924;SDS011;25592;49.986;11.618;2022-11-20T07:45:23;35.70;;;15.75;;
39924;SDS011;25592;49.986;11.618;2022-11-20T07:48:09;33.47;;;15.50;;
39924;SDS011;25592;49.986;11.618;2022-11-20T07:50:55;36.25;;;14.95;;
39924;SDS011;25592;49.986;11.618;2022-11-20T07:53:40;35.05;;;14.50;;
39924;SDS011;25592;49.986;11.618;2022-11-20T07:56:26;33.85;;;15.38;;
39924;SDS011;25592;49.986;11.618;2022-11-20T07:59:11;38.30;;;15.77;;
39924;SDS011;25592;49.986;11.618;2022-11-20T08:01:57;33.50;;;15.00;;
39924;SDS011;25592;49.986;11.618;2022-11-20T08:04:42;33.67;;;15.68;;
39924;SDS011;25592;49.986;11.618;2022-11-20T08:07:27;35.30;;;15.90;;
39924;SDS011;25592;49.986;11.618;2022-11-20T08:10:13;38.00;;;16.40;;
39924;SDS011;25592;49.986;11.618;2022-11-20T08:13:00;34.80;;;16.10;;
39924;SDS011;25592;49.986;11.618;2022-11-20T08:16:05;36.83;;;15.80;;
39924;SDS011;25592;49.986;11.618;2022-11-20T08:18:50;28.88;;;15.25;;
39924;SDS011;25592;49.986;11.618;2022-11-20T08:21:36;37.97;;;14.60;;
39924;SDS011;25592;49.986;11.618;2022-11-20T08:24:22;30.40;;;14.70;;
39924;SDS011;25592;49.986;11.618;2022-11-20T08:27:07;33.78;;;14.63;;
39924;SDS011;25592;49.986;11.618;2022-11-20T08:29:53;34.35;;;14.80;;
39924;SDS011;25592;49.986;11.618;2022-11-20T08:32:38;32.13;;;15.18;;
39924;SDS011;25592;49.986;11.618;2022-11-20T08:35:23;33.85;;;14.95;;
39924;SDS011;25592;49.986;11.618;2022-11-20T08:38:09;36.83;;;16.35;;
39924;SDS011;25592;49.986;11.618;2022-11-20T08:41:01;36.05;;;15.50;;
39924;SDS011;25592;49.986;11.618;2022-11-20T08:44:07;33.88;;;14.60;;
39924;SDS011;25592;49.986;11.618;2022-11-20T08:46:55;33.08;;;14.32;;
39924;SDS011;25592;49.986;11.618;2022-11-20T08:49:40;35.25;;;14.57;;
39924;SDS011;25592;49.986;11.618;2022-11-20T08:52:26;31.77;;;15.70;;
39924;SDS011;25592;49.986;11.618;2022-11-20T08:55:11;32.53;;;14.77;;
39924;SDS011;25592;49.986;11.618;2022-11-20T08:57:57;33.05;;;15.82;;
39924;SDS011;25592;49.986;11.618;2022-11-20T09:00:42;32.20;;;15.52;;
39924;SDS011;25592;49.986;11.618;2022-11-20T09:03:27;37.15;;;17.67;;
39924;SDS011;25592;49.986;11.618;2022-11-20T09:06:17;34.30;;;16.30;;
39924;SDS011;25592;49.986;11.618;2022-11-20T09:09:03;35.40;;;15.52;;
39924;SDS011;25592;49.986;11.618;2022-11-20T09:11:50;34.65;;;14.98;;
39924;SDS011;25592;49.986;11.618;2022-11-20T09:14:36;35.53;;;14.63;;
39924;SDS011;25592;49.986;11.618;2022-11-20T09:17:21;36.72;;;18.35;;
39924;SDS011;25592;49.986;11.618;2022-11-20T09:20:06;36.10;;;15.82;;
39924;SDS011;25592;49.986;11.618;2022-11-20T09:22:52;35.35;;;16.05;;
39924;SDS011;25592;49.986;11.618;2022-11-20T09:25:38;36.85;;;15.80;;
39924;SDS011;25592;49.986;11.618;2022-11-20T09:28:23;35.65;;;15.05;;
39924;SDS011;25592;49.986;11.618;2022-11-20T09:31:11;37.60;;;16.05;;
39924;SDS011;25592;49.986;11.618;2022-11-20T09:34:09;34.03;;;14.73;;
39924;SDS011;25592;49.986;11.618;2022-11-20T09:36:54;34.63;;;14.77;;
39924;SDS011;25592;49.986;11.618;2022-11-20T09:39:40;35.60;;;16.13;;
39924;SDS011;25592;49.986;11.618;2022-11-20T09:48:35;32.38;;;14.25;;
39924;SDS011;25592;49.986;11.618;2022-11-20T09:54:55;32.13;;;13.60;;
39924;SDS011;25592;49.986;11.618;2022-11-20T09:57:42;26.88;;;12.77;;
39924;SDS011;25592;49.986;11.618;2022-11-20T10:00:30;36.45;;;14.13;;
39924;SDS011;25592;49.986;11.618;2022-11-20T10:03:26;30.15;;;13.98;;
39924;SDS011;25592;49.986;11.618;2022-11-20T10:06:24;57.80;;;19.88;;
39924;SDS011;25592;49.986;11.618;2022-11-20T10:09:18;60.25;;;19.48;;
39924;SDS011;25592;49.986;11.618;2022-11-20T10:12:14;44.80;;;21.45;;
39924;SDS011;25592;49.986;11.618;2022-11-20T10:21:25;31.25;;;14.48;;
39924;SDS011;25592;49.986;11.618;2022-11-20T10:24:29;27.45;;;13.68;;
39924;SDS011;25592;49.986;11.618;2022-11-20T10:27:32;29.60;;;12.98;;
39924;SDS011;25592;49.986;11.618;2022-11-20T10:30:40;28.95;;;12.82;;
39924;SDS011;25592;49.986;11.618;2022-11-20T10:33:29;30.52;;;13.55;;
39924;SDS011;25592;49.986;11.618;2022-11-20T10:36:44;29.20;;;14.35;;
39924;SDS011;25592;49.986;11.618;2022-11-20T10:42:37;29.05;;;13.10;;
39924;SDS011;25592;49.986;11.618;2022-11-20T10:48:22;39.72;;;16.65;;
39924;SDS011;25592;49.986;11.618;2022-11-20T10:57:25;34.28;;;15.88;;
39924;SDS011;25592;49.986;11.618;2022-11-20T11:00:14;35.03;;;16.60;;
39924;SDS011;25592;49.986;11.618;2022-11-20T11:03:01;42.10;;;17.73;;
39924;SDS011;25592;49.986;11.618;2022-11-20T11:05:54;38.70;;;17.35;;
39924;SDS011;25592;49.986;11.618;2022-11-20T11:08:57;29.25;;;14.13;;
39924;SDS011;25592;49.986;11.618;2022-11-20T11:11:48;34.22;;;15.75;;
39924;SDS011;25592;49.986;11.618;2022-11-20T11:14:41;36.60;;;14.73;;
39924;SDS011;25592;49.986;11.618;2022-11-20T11:17:29;33.45;;;14.23;;
39924;SDS011;25592;49.986;11.618;2022-11-20T11:20:17;32.85;;;14.98;;
39924;SDS011;25592;49.986;11.618;2022-11-20T11:23:29;32.00;;;14.23;;
39924;SDS011;25592;49.986;11.618;2022-11-20T11:26:20;34.00;;;16.52;;
39924;SDS011;25592;49.986;11.618;2022-11-20T11:29:15;36.25;;;16.73;;
39924;SDS011;25592;49.986;11.618;2022-11-20T11:32:04;31.95;;;14.52;;
39924;SDS011;25592;49.986;11.618;2022-11-20T11:34:59;37.97;;;15.55;;
39924;SDS011;25592;49.986;11.618;2022-11-20T11:37:46;41.08;;;15.90;;
39924;SDS011;25592;49.986;11.618;2022-11-20T11:40:33;40.75;;;18.75;;
39924;SDS011;25592;49.986;11.618;2022-11-20T11:43:22;60.63;;;23.13;;
39924;SDS011;25592;49.986;11.618;2022-11-20T11:46:30;37.70;;;16.67;;
39924;SDS011;25592;49.986;11.618;2022-11-20T11:49:18;33.50;;;15.65;;
39924;SDS011;25592;49.986;11.618;2022-11-20T11:52:18;36.95;;;17.25;;
39924;SDS011;25592;49.986;11.618;2022-11-20T11:55:07;85.35;;;18.48;;
39924;SDS011;25592;49.986;11.618;2022-11-20T11:58:01;41.45;;;16.02;;
39924;SDS011;25592;49.986;11.618;2022-11-20T12:01:26;30.88;;;14.02;;
39924;SDS011;25592;49.986;11.618;2022-11-20T12:07:38;30.00;;;12.95;;
39924;SDS011;25592;49.986;11.618;2022-11-20T12:10:45;33.88;;;13.98;;
39924;SDS011;25592;49.986;11.618;2022-11-20T12:16:40;31.67;;;13.80;;
39924;SDS011;25592;49.986;11.618;2022-11-20T12:19:26;30.42;;;14.70;;
39924;SDS011;25592;49.986;11.618;2022-11-20T12:25:39;30.00;;;14.65;;
39924;SDS011;25592;49.986;11.618;2022-11-20T12:28:44;30.27;;;13.55;;
39924;SDS011;25592;49.986;11.618;2022-11-20T12:38:12;24.55;;;12.13;;
39924;SDS011;25592;49.986;11.618;2022-11-20T12:47:59;27.45;;;13.32;;
39924;SDS011;25592;49.986;11.618;2022-11-20T12:51:05;27.20;;;12.70;;
39924;SDS011;25592;49.986;11.618;2022-11-20T12:54:47;39.45;;;14.77;;
39924;SDS011;25592;49.986;11.618;2022-11-20T12:57:52;28.42;;;14.18;;
39924;SDS011;25592;49.986;11.618;2022-11-20T13:04:30;25.05;;;11.93;;
39924;SDS011;25592;49.986;11.618;2022-11-20T13:07:21;26.17;;;11.85;;
39924;SDS011;25592;49.986;11.618;2022-11-20T13:13:42;26.15;;;12.48;;
39924;SDS011;25592;49.986;11.618;2022-11-20T13:19:22;27.45;;;13.93;;
39924;SDS011;25592;49.986;11.618;2022-11-20T13:22:08;30.77;;;14.25;;
39924;SDS011;25592;49.986;11.618;2022-11-20T13:24:54;30.10;;;14.73;;
39924;SDS011;25592;49.986;11.618;2022-11-20T13:27:46;27.88;;;13.65;;
39924;SDS011;25592;49.986;11.618;2022-11-20T13:30:33;32.35;;;14.52;;
39924;SDS011;25592;49.986;11.618;2022-11-20T13:33:25;30.42;;;14.82;;
39924;SDS011;25592;49.986;11.618;2022-11-20T13:36:23;32.20;;;13.40;;
39924;SDS011;25592;49.986;11.618;2022-11-20T13:39:11;28.27;;;14.25;;
39924;SDS011;25592;49.986;11.618;2022-11-20T13:41:57;26.80;;;13.10;;
39924;SDS011;25592;49.986;11.618;2022-11-20T13:44:50;22.45;;;11.52;;
39924;SDS011;25592;49.986;11.618;2022-11-20T13:47:46;24.95;;;12.07;;
39924;SDS011;25592;49.986;11.618;2022-11-20T13:53:25;25.70;;;12.98;;
39924;SDS011;25592;49.986;11.618;2022-11-20T14:00:17;24.33;;;11.50;;
39924;SDS011;25592;49.986;11.618;2022-11-20T14:06:01;22.60;;;10.80;;
39924;SDS011;25592;49.986;11.618;2022-11-20T14:08:49;21.17;;;10.48;;
39924;SDS011;25592;49.986;11.618;2022-11-20T14:11:35;18.70;;;9.30;;
39924;SDS011;25592;49.986;11.618;2022-11-20T14:14:30;20.70;;;10.52;;
39924;SDS011;25592;49.986;11.618;2022-11-20T14:17:19;16.20;;;8.07;;
39924;SDS011;25592;49.986;11.618;2022-11-20T14:20:14;17.33;;;7.43;;
39924;SDS011;25592;49.986;11.618;2022-11-20T14:23:02;16.58;;;7.28;;
39924;SDS011;25592;49.986;11.618;2022-11-20T14:25:49;14.48;;;8.07;;
39924;SDS011;25592;49.986;11.618;2022-11-20T14:28:34;14.85;;;6.80;;
39924;SDS011;25592;49.986;11.618;2022-11-20T14:31:23;12.80;;;6.30;;
39924;SDS011;25592;49.986;11.618;2022-11-20T14:34:12;13.75;;;6.53;;
39924;SDS011;25592;49.986;11.618;2022-11-20T14:37:02;14.95;;;6.55;;
39924;SDS011;25592;49.986;11.618;2022-11-20T14:39:51;11.30;;;6.22;;
39924;SDS011;25592;49.986;11.618;2022-11-20T14:42:38;12.45;;;5.97;;
39924;SDS011;25592;49.986;11.618;2022-11-20T14:45:28;13.73;;;6.68;;
39924;SDS011;25592;49.986;11.618;2022-11-20T14:48:14;12.25;;;6.18;;
39924;SDS011;25592;49.986;11.618;2022-11-20T14:51:00;12.13;;;6.72;;
39924;SDS011;25592;49.986;11.618;2022-11-20T14:53:45;10.82;;;6.13;;
39924;SDS011;25592;49.986;11.618;2022-11-20T14:56:31;13.02;;;7.07;;
39924;SDS011;25592;49.986;11.618;2022-11-20T14:59:21;17.10;;;8.80;;
39924;SDS011;25592;49.986;11.618;2022-11-20T15:02:11;15.85;;;8.10;;
39924;SDS011;25592;49.986;11.618;2022-11-20T15:04:57;15.23;;;7.90;;
39924;SDS011;25592;49.986;11.618;2022-11-20T15:07:50;17.98;;;7.78;;
39924;SDS011;25592;49.986;11.618;2022-11-20T15:10:49;18.30;;;9.07;;
39924;SDS011;25592;49.986;11.618;2022-11-20T15:13:36;15.77;;;7.75;;
39924;SDS011;25592;49.986;11.618;2022-11-20T15:16:23;17.42;;;7.88;;
39924;SDS011;25592;49.986;11.618;2022-11-20T15:19:16;20.42;;;9.82;;
39924;SDS011;25592;49.986;11.618;2022-11-20T15:22:04;22.10;;;10.75;;
39924;SDS011;25592;49.986;11.618;2022-11-20T15:24:54;29.73;;;14.73;;
39924;SDS011;25592;49.986;11.618;2022-11-20T15:27:40;27.65;;;13.88;;
39924;SDS011;25592;49.986;11.618;2022-11-20T15:30:26;21.60;;;11.18;;
39924;SDS011;25592;49.986;11.618;2022-11-20T15:33:11;22.63;;;11.38;;
39924;SDS011;25592;49.986;11.618;2022-11-20T15:35:57;21.63;;;9.85;;
39924;SDS011;25592;49.986;11.618;2022-11-20T15:38:42;20.92;;;10.43;;
39924;SDS011;25592;49.986;11.618;2022-11-20T15:41:28;19.48;;;10.10;;
39924;SDS011;25592;49.986;11.618;2022-11-20T15:44:13;23.33;;;10.35;;
39924;SDS011;25592;49.986;11.618;2022-11-20T15:46:59;19.10;;;9.93;;
39924;SDS011;25592;49.986;11.618;2022-11-20T15:49:44;21.75;;;10.75;;
39924;SDS011;25592;49.986;11.618;2022-11-20T15:52:30;20.13;;;10.73;;
39924;SDS011;25592;49.986;11.618;2022-11-20T15:55:25;18.98;;;10.57;;
39924;SDS011;25592;49.986;11.618;2022-11-20T15:58:11;17.60;;;8.48;;
39924;SDS011;25592;49.986;11.618;2022-11-20T16:00:56;16.73;;;8.82;;
39924;SDS011;25592;49.986;11.618;2022-11-20T16:03:42;17.50;;;9.23;;
39924;SDS011;25592;49.986;11.618;2022-11-20T16:06:27;18.70;;;9.82;;
39924;SDS011;25592;49.986;11.618;2022-11-20T16:09:13;18.00;;;8.93;;
39924;SDS011;25592;49.986;11.618;2022-11-20T16:11:58;23.98;;;9.15;;
39924;SDS011;25592;49.986;11.618;2022-11-20T16:14:44;17.23;;;8.65;;
39924;SDS011;25592;49.986;11.618;2022-11-20T16:17:55;16.88;;;8.35;;
39924;SDS011;25592;49.986;11.618;2022-11-20T16:20:40;15.40;;;7.82;;
39924;SDS011;25592;49.986;11.618;2022-11-20T16:23:26;19.25;;;10.15;;
39924;SDS011;25592;49.986;11.618;2022-11-20T16:26:12;21.73;;;11.52;;
39924;SDS011;25592;49.986;11.618;2022-11-20T16:28:59;22.63;;;10.27;;
39924;SDS011;25592;49.986;11.618;2022-11-20T16:31:45;19.05;;;9.68;;
39924;SDS011;25592;49.986;11.618;2022-11-20T16:34:30;18.60;;;9.23;;
39924;SDS011;25592;49.986;11.618;2022-11-20T16:37:16;16.13;;;8.48;;
39924;SDS011;25592;49.986;11.618;2022-11-20T16:40:01;16.70;;;8.88;;
39924;SDS011;25592;49.986;11.618;2022-11-20T16:42:47;17.05;;;8.73;;
39924;SDS011;25592;49.986;11.618;2022-11-20T16:45:32;17.25;;;8.93;;
39924;SDS011;25592;49.986;11.618;2022-11-20T16:48:17;21.08;;;10.00;;
39924;SDS011;25592;49.986;11.618;2022-11-20T16:51:03;20.02;;;10.15;;
39924;SDS011;25592;49.986;11.618;2022-11-20T16:53:52;19.88;;;9.20;;
39924;SDS011;25592;49.986;11.618;2022-11-20T16:56:39;23.25;;;11.77;;
39924;SDS011;25592;49.986;11.618;2022-11-20T16:59:25;17.05;;;9.10;;
39924;SDS011;25592;49.986;11.618;2022-11-20T17:02:10;21.15;;;10.55;;
39924;SDS011;25592;49.986;11.618;2022-11-20T17:04:56;20.40;;;10.57;;
39924;SDS011;25592;49.986;11.618;2022-11-20T17:07:41;19.60;;;11.10;;
39924;SDS011;25592;49.986;11.618;2022-11-20T17:10:26;18.90;;;10.07;;
39924;SDS011;25592;49.986;11.618;2022-11-20T17:13:12;22.58;;;10.98;;
39924;SDS011;25592;49.986;11.618;2022-11-20T17:16:04;19.02;;;9.88;;
39924;SDS011;25592;49.986;11.618;2022-11-20T17:18:52;18.58;;;9.20;;
39924;SDS011;25592;49.986;11.618;2022-11-20T17:21:46;21.85;;;9.40;;
39924;SDS011;25592;49.986;11.618;2022-11-20T17:24:31;17.55;;;9.75;;
39924;SDS011;25592;49.986;11.618;2022-11-20T17:27:17;21.65;;;10.77;;
39924;SDS011;25592;49.986;11.618;2022-11-20T17:30:03;20.52;;;10.93;;
39924;SDS011;25592;49.986;11.618;2022-11-20T17:32:48;21.65;;;11.70;;